Time;durP1;ratioP1;P1;durP2;ratioP2;P2;SDS_P1;SDS_P2;PMS_P1;PMS_P2;Temp;Humidity;BMP_temperature;BMP_pressure;BME280_temperature;BME280_humidity;BME280_pressure;Samples;Min_cycle;Max_cycle;Signal;HPM_P1;HPM_P2
2022/01/11 00:00:57;;;;;;;34.17;17.50;;;;;;;1.90;100.00;101118.97;5074139;28;20039;-72
2022/01/11 00:03:43;;;;;;;34.72;18.40;;;;;;;1.99;100.00;101126.91;5074011;28;20105;-73
2022/01/11 00:06:34;;;;;;;36.83;18.17;;;;;;;1.76;100.00;101123.78;5073007;28;20021;-71
2022/01/11 00:09:33;;;;;;;42.60;18.88;;;;;;;1.89;100.00;101127.56;5074408;28;20317;-73
2022/01/11 00:12:22;;;;;;;37.17;17.95;;;;;;;1.87;100.00;101126.63;5074463;28;20028;-73
2022/01/11 00:15:08;;;;;;;44.85;19.90;;;;;;;1.90;100.00;101124.13;5074195;28;20028;-72
2022/01/11 00:17:55;;;;;;;49.03;19.73;;;;;;;1.72;100.00;101129.72;5073873;28;20036;-72
2022/01/11 00:20:41;;;;;;;38.80;18.40;;;;;;;1.76;100.00;101128.97;5074060;28;20127;-73
2022/01/11 00:26:14;;;;;;;43.13;18.38;;;;;;;1.63;100.00;101131.19;5073519;28;20090;-73
2022/01/11 00:28:59;;;;;;;37.97;17.58;;;;;;;1.69;100.00;101144.28;5074413;28;20025;-72
2022/01/11 00:31:47;;;;;;;40.20;18.08;;;;;;;1.58;100.00;101120.78;5072677;28;20103;-72
2022/01/11 00:34:50;;;;;;;34.47;16.42;;;;;;;1.49;100.00;101132.59;5074547;28;20518;-71
2022/01/11 00:37:36;;;;;;;38.63;17.63;;;;;;;1.49;100.00;101145.50;5073285;28;20063;-73
2022/01/11 00:40:22;;;;;;;32.42;16.27;;;;;;;1.58;100.00;101156.03;5074091;28;20445;-72
2022/01/11 00:43:08;;;;;;;36.35;18.17;;;;;;;1.77;100.00;101161.69;5074983;28;20039;-73
2022/01/11 00:45:55;;;;;;;40.42;19.23;;;;;;;1.71;100.00;101161.56;5076869;28;20028;-72
2022/01/11 00:48:41;;;;;;;42.58;18.65;;;;;;;1.63;100.00;101167.34;5078350;28;20381;-71
2022/01/11 00:51:27;;;;;;;34.33;16.67;;;;;;;1.59;100.00;101160.38;5076610;28;20119;-73
2022/01/11 00:54:13;;;;;;;46.40;19.15;;;;;;;1.43;100.00;101181.47;5077761;28;20170;-72
2022/01/11 00:56:59;;;;;;;38.33;19.02;;;;;;;1.45;100.00;101178.06;5076686;28;20029;-72
2022/01/11 00:59:44;;;;;;;41.85;19.35;;;;;;;1.48;100.00;101170.41;5076641;28;20021;-72
2022/01/11 01:02:30;;;;;;;31.33;17.20;;;;;;;1.38;100.00;101171.03;5077052;28;20028;-72
2022/01/11 01:05:17;;;;;;;35.33;18.23;;;;;;;1.51;100.00;101178.25;5077549;28;20034;-72
2022/01/11 01:08:05;;;;;;;34.33;18.52;;;;;;;1.63;100.00;101185.44;5077275;28;20028;-72
2022/01/11 01:10:51;;;;;;;34.47;17.63;;;;;;;1.46;100.00;101194.44;5077566;28;20020;-72
2022/01/11 01:13:37;;;;;;;38.67;20.00;;;;;;;1.48;100.00;101205.72;5076859;28;20028;-71
2022/01/11 01:16:23;;;;;;;38.65;20.20;;;;;;;1.56;100.00;101199.03;5075480;28;20120;-73
2022/01/11 01:19:09;;;;;;;45.97;21.48;;;;;;;1.39;100.00;101200.28;5077369;28;20032;-71
2022/01/11 01:21:55;;;;;;;43.35;20.23;;;;;;;1.34;100.00;101202.75;5077614;28;20094;-72
2022/01/11 01:24:41;;;;;;;39.60;20.48;;;;;;;1.48;100.00;101218.63;5076765;28;20139;-72
2022/01/11 01:27:27;;;;;;;39.65;21.73;;;;;;;1.34;100.00;101205.34;5077429;28;20028;-73
2022/01/11 01:30:13;;;;;;;35.47;19.55;;;;;;;1.42;100.00;101210.69;5076743;28;20033;-71
2022/01/11 01:32:59;;;;;;;39.88;20.35;;;;;;;1.54;100.00;101229.09;5076856;28;20046;-71
2022/01/11 01:35:50;;;;;;;37.65;20.77;;;;;;;1.51;100.00;101213.50;5075769;28;20037;-72
2022/01/11 01:38:37;;;;;;;41.03;20.63;;;;;;;1.43;100.00;101196.94;5076042;28;20464;-73
2022/01/11 01:41:26;;;;;;;37.67;19.98;;;;;;;1.22;100.00;101194.69;5076243;28;20024;-73
2022/01/11 01:44:13;;;;;;;38.92;20.58;;;;;;;1.35;100.00;101207.06;5076592;28;20350;-72
2022/01/11 01:46:59;;;;;;;36.95;21.30;;;;;;;1.31;100.00;101200.09;5076701;28;20028;-72
2022/01/11 01:49:45;;;;;;;36.13;19.10;;;;;;;1.10;100.00;101202.09;5076439;28;20023;-72
2022/01/11 01:52:31;;;;;;;36.05;19.55;;;;;;;1.22;100.00;101210.16;5076505;28;20021;-72
2022/01/11 01:55:17;;;;;;;36.00;19.40;;;;;;;1.31;100.00;101210.41;5075821;28;20025;-72
2022/01/11 01:58:03;;;;;;;37.70;20.52;;;;;;;0.96;100.00;101231.75;5075571;28;20411;-72
2022/01/11 02:00:55;;;;;;;39.90;20.50;;;;;;;1.20;100.00;101236.75;5075994;28;20020;-71
2022/01/11 02:03:43;;;;;;;34.13;19.73;;;;;;;1.17;100.00;101234.09;5075603;28;20099;-72
2022/01/11 02:06:29;;;;;;;37.00;19.48;;;;;;;0.93;100.00;101225.66;5075638;28;20099;-71
2022/01/11 02:09:16;;;;;;;35.13;19.55;;;;;;;0.95;100.00;101242.91;5075568;28;20345;-71
2022/01/11 02:12:02;;;;;;;37.17;20.00;;;;;;;1.04;100.00;101250.91;5076420;28;20029;-72
2022/01/11 02:14:48;;;;;;;36.10;19.50;;;;;;;0.93;100.00;101252.31;5075914;28;20039;-71
2022/01/11 02:17:34;;;;;;;35.33;19.60;;;;;;;1.10;100.00;101250.22;5075077;28;20048;-73
2022/01/11 02:20:23;;;;;;;37.17;20.38;;;;;;;1.13;100.00;101252.88;5075399;28;20036;-72
2022/01/11 02:23:08;;;;;;;34.33;19.60;;;;;;;1.04;100.00;101265.53;5076432;28;20016;-72
2022/01/11 02:49:08;;;;;;;41.22;21.30;;;;;;;1.19;100.00;101325.31;4973644;22;20514;-72
2022/01/11 02:51:54;;;;;;;34.47;20.08;;;;;;;0.91;100.00;101320.13;5036312;28;20034;-71
2022/01/11 02:54:40;;;;;;;34.05;19.20;;;;;;;0.90;100.00;101329.59;5034828;28;20029;-72
2022/01/11 02:57:26;;;;;;;36.75;20.48;;;;;;;0.86;100.00;101317.44;5020268;28;20053;-72
2022/01/11 03:00:18;;;;;;;37.70;21.70;;;;;;;0.99;100.00;101334.16;5020912;28;20100;-72
2022/01/11 03:03:14;;;;;;;36.72;21.10;;;;;;;0.97;100.00;101323.81;5035196;28;20029;-71
2022/01/11 03:06:02;;;;;;;40.30;21.90;;;;;;;1.04;100.00;101307.66;5020793;28;20026;-71
2022/01/11 03:08:48;;;;;;;42.97;23.10;;;;;;;0.82;100.00;101315.59;5033923;28;20032;-71
2022/01/11 03:11:35;;;;;;;44.45;23.63;;;;;;;0.89;100.00;101314.97;5034588;28;20092;-72
2022/01/11 03:14:20;;;;;;;41.70;22.65;;;;;;;0.87;100.00;101321.75;5019958;28;20025;-72
2022/01/11 03:17:06;;;;;;;42.85;23.02;;;;;;;0.96;100.00;101303.97;5036260;28;20417;-71
2022/01/11 03:19:56;;;;;;;40.60;22.00;;;;;;;1.02;100.00;101331.66;5020456;28;20033;-73
2022/01/11 03:34:02;;;;;;;43.88;23.23;;;;;;;0.79;100.00;101340.38;5033474;28;20069;-72
2022/01/11 03:36:48;;;;;;;47.05;23.90;;;;;;;0.73;100.00;101346.25;5034914;28;20036;-72
2022/01/11 03:39:33;;;;;;;46.33;24.08;;;;;;;0.75;100.00;101346.28;5035133;28;20102;-72
2022/01/11 04:31:06;;;;;;;35.45;18.77;;;;;;;0.49;100.00;101440.84;5036972;28;20384;-72
2022/01/11 04:33:52;;;;;;;34.53;18.25;;;;;;;0.60;100.00;101443.78;5036319;28;20373;-72
2022/01/11 04:59:54;;;;;;;39.35;17.98;;;;;;;0.46;100.00;101479.41;5822587;22;20065;-73
2022/01/11 05:02:41;;;;;;;36.33;18.38;;;;;;;0.42;100.00;101477.53;5037305;28;20462;-72
2022/01/11 05:05:29;;;;;;;28.67;16.27;;;;;;;0.34;100.00;101484.13;5037736;28;20044;-72
2022/01/11 05:08:15;;;;;;;35.28;17.48;;;;;;;0.49;100.00;101491.50;5037289;28;20105;-72
2022/01/11 05:11:01;;;;;;;32.47;17.15;;;;;;;0.47;100.00;101486.28;5037574;28;20037;-71
2022/01/11 05:13:46;;;;;;;30.40;17.13;;;;;;;0.36;100.00;101500.50;5022613;28;20542;-71
2022/01/11 05:16:32;;;;;;;34.13;17.60;;;;;;;0.42;100.00;101502.41;5037139;28;20140;-73
2022/01/11 05:31:38;;;;;;;31.50;16.83;;;;;;;0.40;100.00;101527.28;5035167;28;20037;-72
2022/01/11 05:34:25;;;;;;;30.98;17.25;;;;;;;0.31;100.00;101540.69;5037144;28;20021;-73
2022/01/11 05:37:11;;;;;;;29.20;16.00;;;;;;;0.49;100.00;101530.16;5037068;28;20035;-73
2022/01/11 05:39:58;;;;;;;37.40;18.10;;;;;;;0.40;100.00;101525.56;5035751;28;20029;-73
2022/01/11 05:42:45;;;;;;;35.05;16.67;;;;;;;0.39;100.00;101531.53;5036061;28;20370;-72
2022/01/11 05:45:31;;;;;;;49.03;20.10;;;;;;;0.38;100.00;101529.78;5036463;28;20037;-73
2022/01/11 05:48:16;;;;;;;43.85;19.58;;;;;;;0.56;100.00;101532.16;5036871;28;20017;-72
2022/01/11 05:51:02;;;;;;;39.50;18.77;;;;;;;0.48;100.00;101539.59;5036541;28;20454;-73
2022/01/11 05:53:48;;;;;;;45.55;19.20;;;;;;;0.58;100.00;101541.69;5035979;28;20341;-73
2022/01/11 05:56:34;;;;;;;45.38;18.05;;;;;;;0.58;100.00;101546.84;5035732;28;20026;-72
2022/01/11 05:59:20;;;;;;;38.90;17.98;;;;;;;0.63;100.00;101545.28;5035363;28;20091;-73
2022/01/11 06:02:06;;;;;;;31.13;15.00;;;;;;;0.33;100.00;101536.47;5035494;28;20090;-72
2022/01/11 06:04:51;;;;;;;36.30;17.00;;;;;;;0.39;100.00;101553.88;5035747;28;20103;-72
2022/01/11 06:07:39;;;;;;;29.27;15.57;;;;;;;0.42;100.00;101544.53;5036012;28;20098;-73
2022/01/11 06:10:25;;;;;;;42.85;17.60;;;;;;;0.47;100.00;101543.00;5036653;28;20045;-73
2022/01/11 06:13:11;;;;;;;31.77;16.75;;;;;;;0.60;100.00;101534.88;5036132;28;20107;-73
2022/01/11 06:18:32;;;;;;;35.53;17.42;;;;;;;0.43;100.00;101543.72;5034879;28;20044;-72
2022/01/11 06:21:18;;;;;;;33.47;17.13;;;;;;;0.38;100.00;101554.66;5035345;28;20428;-73
2022/01/11 06:24:04;;;;;;;31.95;17.27;;;;;;;0.36;100.00;101557.19;5035670;28;20112;-72
2022/01/11 06:26:50;;;;;;;34.95;17.20;;;;;;;0.31;100.00;101561.31;5034153;28;20013;-73
2022/01/11 06:29:35;;;;;;;41.35;17.23;;;;;;;0.19;100.00;101557.41;5036033;28;20462;-73
2022/01/11 06:32:21;;;;;;;35.55;18.95;;;;;;;0.43;100.00;101560.91;5034591;28;20469;-73
2022/01/11 06:35:11;;;;;;;33.35;18.20;;;;;;;0.37;100.00;101577.00;5034582;28;20468;-72
2022/01/11 06:44:18;;;;;;;35.13;18.95;;;;;;;0.29;100.00;101593.88;6165459;22;20015;-73
2022/01/11 06:47:05;;;;;;;46.90;21.13;;;;;;;0.71;100.00;101597.13;5001102;28;20068;-73
2022/01/11 06:49:51;;;;;;;57.10;22.67;;;;;;;0.42;100.00;101603.81;5016109;28;20033;-72
2022/01/11 06:52:36;;;;;;;44.10;22.67;;;;;;;0.67;100.00;101603.00;5016483;28;20030;-73
2022/01/11 06:55:22;;;;;;;40.42;19.88;;;;;;;0.59;100.00;101602.72;5001819;28;20109;-73
2022/01/11 06:58:08;;;;;;;41.83;19.88;;;;;;;0.37;100.00;101601.88;5015682;28;20041;-73
2022/01/11 07:00:54;;;;;;;44.63;19.77;;;;;;;0.41;100.00;101608.91;5015646;28;20084;-72
2022/01/11 07:03:40;;;;;;;38.05;19.95;;;;;;;0.45;100.00;101618.50;5015636;28;20026;-72
2022/01/11 07:06:25;;;;;;;33.75;16.25;;;;;;;0.37;100.00;101622.50;5015305;28;20045;-72
2022/01/11 07:09:11;;;;;;;28.45;15.57;;;;;;;0.42;100.00;101623.56;5016164;28;20068;-72
2022/01/11 07:15:41;;;;;;;33.22;16.67;;;;;;;0.43;100.00;101626.19;5215417;22;20068;-70
2022/01/11 07:18:27;;;;;;;37.60;17.65;;;;;;;0.36;100.00;101649.97;5034988;28;20041;-70
2022/01/11 07:21:13;;;;;;;44.40;19.45;;;;;;;0.20;100.00;101631.31;5021051;28;20028;-70
2022/01/11 07:23:59;;;;;;;36.25;17.83;;;;;;;0.15;100.00;101633.69;5034343;28;20466;-69
2022/01/11 07:26:44;;;;;;;34.38;17.42;;;;;;;0.37;100.00;101641.44;5034648;28;20021;-70
2022/01/11 07:29:31;;;;;;;29.38;17.00;;;;;;;0.49;100.00;101651.31;5021156;28;20044;-70
2022/01/11 07:32:16;;;;;;;33.75;17.67;;;;;;;0.58;100.00;101647.41;5035330;28;20029;-71
2022/01/11 07:35:03;;;;;;;47.20;20.55;;;;;;;0.44;100.00;101656.28;5034901;28;20124;-71
2022/01/11 07:37:52;;;;;;;48.47;20.85;;;;;;;0.61;100.00;101649.19;5034591;28;20026;-69
2022/01/11 07:40:38;;;;;;;34.70;16.75;;;;;;;0.49;100.00;101654.78;5020728;28;20033;-69
2022/01/11 07:43:24;;;;;;;33.10;15.75;;;;;;;0.43;100.00;101653.69;5034650;28;20421;-69
2022/01/11 07:46:10;;;;;;;31.80;15.80;;;;;;;0.28;100.00;101664.25;5034596;28;20128;-69
2022/01/11 07:48:59;;;;;;;33.17;16.35;;;;;;;0.40;100.00;101658.72;5020641;28;20071;-69
2022/01/11 07:51:45;;;;;;;45.30;19.00;;;;;;;0.44;100.00;101671.75;5033870;28;20026;-70
2022/01/11 07:54:31;;;;;;;47.92;19.42;;;;;;;0.45;100.00;101673.53;5020750;28;20035;-70
2022/01/11 08:00:59;;;;;;;25.88;13.45;;;;;;;0.38;100.00;101691.25;5034304;28;20025;-70
2022/01/11 08:03:46;;;;;;;29.40;14.73;;;;;;;0.42;100.00;101676.00;5033775;28;20331;-69
2022/01/11 08:06:33;;;;;;;27.40;15.07;;;;;;;0.59;100.00;101699.84;5034816;28;20446;-69
2022/01/11 08:09:18;;;;;;;24.13;13.20;;;;;;;0.33;100.00;101693.69;5033903;28;20401;-69
2022/01/11 08:12:05;;;;;;;25.73;13.15;;;;;;;0.48;100.00;101689.09;5020136;28;20469;-70
2022/01/11 08:14:50;;;;;;;32.35;15.27;;;;;;;0.57;100.00;101691.16;5033281;28;20104;-69
2022/01/11 08:17:36;;;;;;;28.55;14.13;;;;;;;0.66;100.00;101694.97;5033726;28;20036;-70
2022/01/11 08:24:05;;;;;;;25.02;13.07;;;;;;;0.36;100.00;101705.81;5034344;28;20470;-69
2022/01/11 08:26:53;;;;;;;21.25;11.63;;;;;;;0.40;100.00;101708.53;5034534;28;20021;-69
2022/01/11 08:29:39;;;;;;;25.10;12.82;;;;;;;0.52;100.00;101715.88;5034329;28;20473;-70
2022/01/11 08:32:25;;;;;;;34.45;13.98;;;;;;;0.60;100.00;101720.50;5019422;28;20415;-70
2022/01/11 08:35:12;;;;;;;32.65;15.68;;;;;;;0.71;100.00;101733.78;5034630;28;20036;-69
2022/01/11 08:37:58;;;;;;;30.33;12.77;;;;;;;0.81;100.00;101730.75;5034326;28;20045;-70
2022/01/11 08:40:45;;;;;;;18.77;10.32;;;;;;;0.58;100.00;101732.47;5020247;28;20033;-69
2022/01/11 08:43:52;;;;;;;22.90;11.82;;;;;;;0.83;100.00;101724.84;5019557;28;20033;-70
2022/01/11 08:46:41;;;;;;;18.65;9.98;;;;;;;0.77;100.00;101722.03;5033610;28;20101;-70
2022/01/11 08:49:27;;;;;;;26.13;12.18;;;;;;;0.55;100.00;101719.44;5034455;28;20060;-70
2022/01/11 08:52:13;;;;;;;31.75;13.50;;;;;;;0.65;100.00;101719.00;5019933;28;20039;-69
2022/01/11 08:54:59;;;;;;;26.23;12.63;;;;;;;0.90;100.00;101724.25;5033944;28;20037;-69
2022/01/11 08:57:45;;;;;;;20.33;11.35;;;;;;;0.59;100.00;101723.91;5033989;28;20033;-71
2022/01/11 09:00:31;;;;;;;16.05;9.80;;;;;;;0.56;100.00;101736.66;5033842;28;20466;-71
2022/01/11 09:03:17;;;;;;;17.88;9.52;;;;;;;0.39;100.00;101730.00;5034602;28;20446;-72
2022/01/11 09:06:07;;;;;;;19.80;10.98;;;;;;;0.46;100.00;101729.41;5036493;28;20033;-71
2022/01/11 09:08:53;;;;;;;21.67;10.05;;;;;;;0.46;100.00;101716.53;5037308;28;20044;-72
2022/01/11 09:11:41;;;;;;;21.25;10.88;;;;;;;0.59;100.00;101707.59;5036761;28;20061;-71
2022/01/11 09:14:27;;;;;;;24.25;11.85;;;;;;;0.46;100.00;101713.06;5023066;28;20476;-72
2022/01/11 09:17:15;;;;;;;29.30;12.25;;;;;;;0.61;100.00;101718.81;5037369;28;20045;-73
2022/01/11 09:20:05;;;;;;;24.15;11.20;;;;;;;0.91;100.00;101726.00;5037282;28;20101;-72
2022/01/11 09:31:43;;;;;;;21.08;10.93;;;;;;;0.71;100.00;101713.16;5352898;22;20507;-72
2022/01/11 09:34:29;;;;;;;21.75;11.23;;;;;;;0.48;100.00;101720.03;5035950;28;20029;-73
2022/01/11 09:37:15;;;;;;;25.77;13.35;;;;;;;0.47;100.00;101727.72;5036909;28;20018;-72
2022/01/11 09:40:01;;;;;;;20.98;11.15;;;;;;;0.40;100.00;101715.41;5037382;28;20124;-71
2022/01/11 09:42:48;;;;;;;24.15;11.55;;;;;;;0.51;100.00;101717.59;5037694;28;20087;-71
2022/01/11 09:45:35;;;;;;;19.23;11.20;;;;;;;0.71;100.00;101721.78;5037434;28;20097;-72
2022/01/11 09:48:25;;;;;;;21.38;10.68;;;;;;;0.59;100.00;101718.75;5037291;28;20017;-71
2022/01/11 09:51:11;;;;;;;19.75;10.57;;;;;;;0.70;100.00;101730.34;5023099;28;20033;-72
2022/01/11 09:53:57;;;;;;;25.35;11.25;;;;;;;0.41;100.00;101722.31;5036668;28;20029;-71
2022/01/11 09:56:43;;;;;;;31.02;14.13;;;;;;;0.59;100.00;101716.16;5035876;28;20030;-72
2022/01/11 09:59:30;;;;;;;20.85;11.52;;;;;;;0.66;100.00;101719.84;5022324;28;20091;-71
2022/01/11 10:02:17;;;;;;;20.98;10.70;;;;;;;0.61;100.00;101721.41;5035621;28;20112;-71
2022/01/11 10:05:07;;;;;;;23.00;10.85;;;;;;;0.78;100.00;101728.06;5036799;28;20107;-71
2022/01/11 10:07:53;;;;;;;21.85;11.68;;;;;;;0.79;100.00;101738.44;5036310;28;20025;-71
2022/01/11 10:10:44;;;;;;;21.33;11.52;;;;;;;0.84;100.00;101742.06;5036427;28;20052;-71
2022/01/11 10:17:15;;;;;;;19.80;10.88;;;;;;;0.74;100.00;101734.81;5963487;22;20024;-70
2022/01/11 10:20:06;;;;;;;20.52;11.07;;;;;;;0.77;100.00;101759.84;5016311;28;20100;-71
2022/01/11 10:22:59;;;;;;;24.42;12.07;;;;;;;0.89;100.00;101761.19;5015954;28;20034;-72
2022/01/11 10:25:47;;;;;;;21.70;12.27;;;;;;;0.86;100.00;101771.38;5001842;28;20034;-71
2022/01/11 10:28:35;;;;;;;36.42;14.57;;;;;;;0.95;100.00;101774.31;5002730;28;20037;-72
2022/01/11 10:31:34;;;;;;;28.65;13.68;;;;;;;0.81;100.00;101772.91;5002835;28;20049;-72
2022/01/11 10:34:32;;;;;;;23.83;12.63;;;;;;;0.55;100.00;101768.44;5016005;28;20112;-72
2022/01/11 10:41:44;;;;;;;29.58;13.88;;;;;;;0.44;100.00;101768.84;5016026;28;20049;-71
2022/01/11 10:44:47;;;;;;;23.27;12.18;;;;;;;0.55;100.00;101773.59;5002408;28;20045;-72
2022/01/11 10:47:42;;;;;;;19.02;10.70;;;;;;;0.40;100.00;101762.66;5002454;28;20332;-71
2022/01/11 10:50:37;;;;;;;17.65;9.70;;;;;;;0.37;100.00;101757.41;5015725;28;20573;-71
2022/01/11 10:53:32;;;;;;;19.70;10.80;;;;;;;0.46;100.00;101751.72;5016447;28;20033;-71
2022/01/11 10:56:19;;;;;;;17.73;10.18;;;;;;;0.43;100.00;101746.47;5015389;28;20162;-71
2022/01/11 10:59:12;;;;;;;18.60;10.75;;;;;;;0.59;100.00;101765.16;5015821;28;20103;-70
2022/01/11 11:01:58;;;;;;;29.27;11.63;;;;;;;0.54;100.00;101758.94;5016036;28;20422;-72
2022/01/11 11:04:43;;;;;;;22.85;11.85;;;;;;;0.69;100.00;101756.97;5015716;28;20029;-72
2022/01/11 11:07:29;;;;;;;22.10;11.30;;;;;;;0.41;100.00;101769.59;5015206;28;20160;-71
2022/01/11 11:10:15;;;;;;;24.70;11.80;;;;;;;0.44;100.00;101743.94;5000513;28;20032;-72
2022/01/11 11:13:02;;;;;;;21.20;10.32;;;;;;;0.43;100.00;101767.09;5015458;28;20405;-73
2022/01/11 11:15:49;;;;;;;18.95;10.25;;;;;;;0.43;100.00;101751.63;5016065;28;20026;-72
2022/01/11 11:18:45;;;;;;;18.15;10.45;;;;;;;0.48;100.00;101750.97;5015529;28;20379;-72
2022/01/11 11:21:38;;;;;;;18.45;10.27;;;;;;;0.54;100.00;101760.63;5000476;28;20053;-73
2022/01/11 11:24:24;;;;;;;18.65;10.05;;;;;;;0.50;100.00;101758.75;5015274;28;20026;-71
2022/01/11 11:27:10;;;;;;;19.45;10.00;;;;;;;0.54;100.00;101764.09;4999692;28;20131;-72
2022/01/11 11:29:59;;;;;;;16.38;9.55;;;;;;;0.52;100.00;101762.28;5001897;28;20069;-71
2022/01/11 11:32:49;;;;;;;16.95;9.93;;;;;;;0.37;100.00;101769.41;5014667;28;20037;-72
2022/01/11 11:35:35;;;;;;;21.92;9.52;;;;;;;0.55;100.00;101789.06;5016030;28;20037;-73
2022/01/11 11:38:29;;;;;;;21.83;10.10;;;;;;;0.56;100.00;101780.50;5014872;28;20030;-71
2022/01/11 11:41:15;;;;;;;22.50;11.43;;;;;;;0.60;100.00;101774.66;5014910;28;20034;-72
2022/01/11 11:44:36;;;;;;;28.65;13.52;;;;;;;0.54;100.00;101769.25;5000429;28;20026;-72
2022/01/11 11:47:37;;;;;;;20.88;10.70;;;;;;;0.53;100.00;101788.13;4998147;28;20029;-72
2022/01/11 11:50:23;;;;;;;17.55;9.90;;;;;;;0.41;100.00;101782.50;5014836;28;20091;-71
2022/01/11 11:53:20;;;;;;;20.08;11.07;;;;;;;0.70;100.00;101792.25;5015222;28;20179;-72
2022/01/11 11:56:13;;;;;;;19.98;10.65;;;;;;;0.66;100.00;101798.09;5014759;28;20386;-72
2022/01/11 11:59:09;;;;;;;27.73;12.05;;;;;;;0.63;100.00;101797.13;5001721;28;20029;-71
2022/01/11 12:01:58;;;;;;;27.23;11.82;;;;;;;0.61;100.00;101803.91;5000887;28;20072;-72
2022/01/11 12:04:47;;;;;;;33.67;13.13;;;;;;;0.75;100.00;101787.25;5001565;28;20025;-72
2022/01/11 12:07:46;;;;;;;25.67;12.52;;;;;;;0.93;100.00;101800.88;5015355;28;20022;-71
2022/01/11 12:10:52;;;;;;;20.15;11.27;;;;;;;0.83;100.00;101802.22;5000299;28;20049;-71
2022/01/11 12:13:43;;;;;;;18.80;9.85;;;;;;;0.72;100.00;101793.16;5000612;28;20026;-71
2022/01/11 12:16:38;;;;;;;19.15;11.00;;;;;;;0.70;100.00;101791.34;5014694;28;20109;-72
2022/01/11 12:19:40;;;;;;;18.08;10.45;;;;;;;0.89;100.00;101806.72;5014179;28;20053;-71
2022/01/11 12:22:30;;;;;;;28.40;11.02;;;;;;;0.90;100.00;101795.59;5001270;28;20033;-71
2022/01/11 12:25:30;;;;;;;26.40;12.60;;;;;;;0.89;100.00;101796.41;5014241;28;20030;-72
2022/01/11 12:28:23;;;;;;;28.02;13.05;;;;;;;0.78;100.00;101795.13;5000597;28;20029;-71
2022/01/11 12:31:29;;;;;;;17.55;10.05;;;;;;;0.61;100.00;101804.78;5015439;28;20378;-72
2022/01/11 12:34:15;;;;;;;21.95;10.75;;;;;;;0.70;100.00;101810.31;5014468;28;20458;-71
2022/01/11 12:37:03;;;;;;;19.30;10.52;;;;;;;0.88;100.00;101820.47;5000519;28;20109;-71
2022/01/11 12:40:09;;;;;;;23.48;11.20;;;;;;;0.75;100.00;101820.78;5017686;28;20450;-72
2022/01/11 12:43:05;;;;;;;25.20;11.40;;;;;;;0.73;100.00;101831.06;5018076;28;20112;-71
2022/01/11 12:46:11;;;;;;;26.73;11.68;;;;;;;0.84;100.00;101829.75;5094029;22;20068;-71
2022/01/11 12:48:59;;;;;;;20.75;11.48;;;;;;;0.64;100.00;101843.56;5036376;28;20049;-71
2022/01/11 12:51:50;;;;;;;22.92;10.65;;;;;;;0.74;100.00;101856.03;5023806;28;20435;-72
2022/01/11 12:54:48;;;;;;;23.83;11.90;;;;;;;0.64;100.00;101853.88;5037269;28;20025;-72
2022/01/11 12:57:34;;;;;;;23.63;10.88;;;;;;;0.63;100.00;101864.16;5023079;28;20033;-72
2022/01/11 13:00:21;;;;;;;29.00;13.85;;;;;;;0.76;100.00;101848.34;5037645;28;20041;-72
2022/01/11 13:03:07;;;;;;;23.85;12.10;;;;;;;1.05;100.00;101850.38;5038674;28;20033;-72
2022/01/11 13:06:09;;;;;;;20.25;11.15;;;;;;;0.87;100.00;101865.09;5024032;28;20025;-71
2022/01/11 13:09:12;;;;;;;20.00;10.43;;;;;;;0.95;100.00;101853.38;5039776;28;20039;-72
2022/01/11 13:11:58;;;;;;;20.88;10.90;;;;;;;0.86;100.00;101853.03;5023057;28;20358;-72
2022/01/11 13:14:43;;;;;;;23.45;11.07;;;;;;;0.88;100.00;101875.50;5037699;28;20037;-72
2022/01/11 13:17:29;;;;;;;18.45;10.48;;;;;;;0.55;100.00;101875.84;5021905;28;20029;-71
2022/01/11 13:20:16;;;;;;;20.65;11.05;;;;;;;0.81;100.00;101868.34;5035677;28;20033;-71
2022/01/11 13:23:15;;;;;;;23.95;12.32;;;;;;;0.94;100.00;101868.00;5023265;28;20034;-70
2022/01/11 13:26:12;;;;;;;23.08;11.20;;;;;;;0.97;100.00;101875.88;5023227;28;20183;-72
2022/01/11 13:29:00;;;;;;;19.25;10.43;;;;;;;0.86;100.00;101881.41;5038174;28;20438;-72
2022/01/11 13:31:51;;;;;;;19.63;10.00;;;;;;;0.81;100.00;101877.78;5037109;28;20044;-72
2022/01/11 13:34:38;;;;;;;20.25;10.05;;;;;;;0.80;100.00;101866.56;5037421;28;20040;-72
2022/01/11 13:37:28;;;;;;;21.73;11.15;;;;;;;1.14;100.00;101872.25;5036510;28;20030;-71
2022/01/11 13:40:16;;;;;;;29.95;11.82;;;;;;;0.97;100.00;101864.66;5037016;28;20110;-72
2022/01/11 13:43:02;;;;;;;37.60;12.80;;;;;;;1.08;100.00;101882.31;5037350;28;20029;-71
2022/01/11 13:45:48;;;;;;;23.33;12.25;;;;;;;1.09;100.00;101866.03;5036014;28;20053;-72
2022/01/11 13:48:37;;;;;;;19.13;10.77;;;;;;;1.00;100.00;101867.38;5021552;28;20017;-72
2022/01/11 13:51:28;;;;;;;21.05;10.70;;;;;;;0.78;100.00;101896.59;5035855;28;20021;-71
2022/01/11 13:54:15;;;;;;;21.90;10.95;;;;;;;0.78;100.00;101886.28;5036433;28;20029;-71
2022/01/11 13:57:04;;;;;;;21.02;10.48;;;;;;;0.83;100.00;101895.06;5020633;28;20037;-71
2022/01/11 13:59:58;;;;;;;28.15;12.13;;;;;;;0.90;100.00;101883.28;5037030;28;20026;-72
2022/01/11 14:02:45;;;;;;;32.15;12.75;;;;;;;1.07;100.00;101897.72;5035601;28;20036;-71
2022/01/11 14:05:33;;;;;;;33.05;12.30;;;;;;;0.75;100.00;101890.41;5036884;28;20446;-71
2022/01/11 14:08:31;;;;;;;30.17;12.02;;;;;;;0.91;100.00;101913.41;5036272;28;20366;-71
2022/01/11 14:11:35;;;;;;;37.30;13.65;;;;;;;0.53;100.00;101898.09;5036166;28;20386;-71
2022/01/11 14:14:23;;;;;;;29.02;12.23;;;;;;;0.63;100.00;101915.72;5022362;28;20072;-73
2022/01/11 14:17:14;;;;;;;32.15;13.50;;;;;;;0.91;100.00;101913.41;5036653;28;20042;-71
2022/01/11 14:20:05;;;;;;;30.85;13.88;;;;;;;1.04;100.00;101906.22;5036102;28;20021;-71
2022/01/11 14:22:54;;;;;;;27.55;13.13;;;;;;;0.77;100.00;101914.59;5036646;28;20025;-72
2022/01/11 14:25:49;;;;;;;40.72;11.20;;;;;;;0.71;100.00;101925.53;5035759;28;20044;-71
2022/01/11 14:28:37;;;;;;;27.15;12.70;;;;;;;0.74;100.00;101919.59;5034949;28;20442;-71
2022/01/11 14:31:29;;;;;;;36.40;12.77;;;;;;;0.79;100.00;101929.28;5036601;28;20030;-72
2022/01/11 14:34:16;;;;;;;31.27;12.27;;;;;;;0.55;100.00;101922.28;5021129;28;20458;-71
2022/01/11 14:37:34;;;;;;;19.65;10.15;;;;;;;0.47;100.00;101933.97;5036373;28;20040;-73
2022/01/11 14:40:28;;;;;;;27.58;11.57;;;;;;;0.49;100.00;101946.09;5004024;28;20109;-72
2022/01/11 14:43:18;;;;;;;28.45;11.45;;;;;;;0.65;100.00;101957.91;5034895;28;20021;-71
2022/01/11 14:46:14;;;;;;;32.67;12.32;;;;;;;0.63;100.00;101942.38;5035796;28;20106;-72
2022/01/11 14:49:11;;;;;;;37.83;13.52;;;;;;;0.63;100.00;101957.84;5035733;28;20033;-73
2022/01/11 14:52:07;;;;;;;27.08;11.88;;;;;;;0.44;100.00;101960.47;5022830;28;20033;-70
2022/01/11 14:54:56;;;;;;;34.03;12.20;;;;;;;0.41;100.00;101965.50;5035707;28;20080;-70
2022/01/11 14:57:42;;;;;;;33.95;13.18;;;;;;;0.43;100.00;101969.00;5034463;28;20079;-71
2022/01/11 15:00:30;;;;;;;32.80;13.20;;;;;;;0.56;100.00;101970.44;5035953;28;20434;-71
2022/01/11 15:03:30;;;;;;;31.60;12.45;;;;;;;0.45;100.00;101988.03;5035578;28;20466;-71
2022/01/11 15:06:22;;;;;;;25.38;12.00;;;;;;;0.64;100.00;101975.06;5036654;28;20076;-70
2022/01/11 15:09:17;;;;;;;20.88;11.63;;;;;;;0.67;100.00;101980.38;5021245;28;20025;-70
2022/01/11 15:12:19;;;;;;;26.50;12.73;;;;;;;0.77;100.00;101986.78;5021682;28;20124;-71
2022/01/11 15:15:05;;;;;;;26.33;12.80;;;;;;;0.71;100.00;101981.38;5035502;28;20029;-71
2022/01/11 15:17:51;;;;;;;30.80;12.32;;;;;;;0.58;100.00;101990.31;5033536;28;20091;-70
2022/01/11 15:20:37;;;;;;;27.10;11.98;;;;;;;0.48;100.00;101995.88;5035459;28;20032;-70
2022/01/11 15:23:23;;;;;;;26.63;11.90;;;;;;;0.65;100.00;101997.50;5033402;28;20025;-71
2022/01/11 15:26:08;;;;;;;24.08;11.15;;;;;;;0.34;100.00;102007.28;5034814;28;20033;-70